Terminal Aerodrome Forecast
Issued by NWS Wichita, KS

Home | Current Version | Previous Version | Graphics & Text | Print | Product List | Glossary On
Versions: 1 2 3 4 5 6 7 8 9 10 11 12 13 14 15 16 17 18 19
000
FTUS43 KICT 301721
TAFICT
TAF
KICT 301721Z 3018/3118 11008KT P6SM SCT060 BKN120
     FM310000 12007KT P6SM SCT250
     FM310600 18005KT P6SM SCT150 BKN250=

USA.gov is the U.S. government's official web portal to all federal, state and local government web resources and services.